LIMF/TRN METAR and TAF weather

Enter ICAO airport designator
Station Type Date Time Source
LIMF METAR 2019/12/08 03:50 UTC NOAA

LIMF 080350Z 34006KT 8000 BKN025 03/00 Q1020


Station Type Date Time Source
LIMF Decoded METAR 2019/12/08 03:50 UTC NOAA

Torino / Caselle, Italy (LIMF) 45-13N 007-39E 287M
Dec 07, 2019 - 10:50 PM EST / 2019.12.08 0350 UTC
Wind: from the NNW (340 degrees) at 7 MPH (6 KT):0
Visibility: 4 mile(s):0
Sky conditions: mostly cloudy
Temperature: 37 F (3 C)
Dew Point: 32 F (0 C)
Relative Humidity: 80%
Pressure (altimeter): 30.12 in. Hg (1020 hPa)
ob: LIMF 080350Z 34006KT 8000 BKN025 03/00 Q1020
cycle: 4

Station Type Date Time Source
LIMF TAF 2019/12/07 18:21 UTC NOAA

TAF LIMF 071700Z 0718/0818 VRB05KT CAVOK
BECMG 0814/0816 4000 BR BKN012 BKN040

Example: see airport list